CDT,Max TemperatureF,Mean TemperatureF,Min TemperatureF,Max Dew PointF,MeanDew PointF,Min DewpointF,Max Humidity, Mean Humidity, Min Humidity, Max Sea Level PressureIn, Mean Sea Level PressureIn, Min Sea Level PressureIn, Max VisibilityMiles, Mean VisibilityMiles, Min VisibilityMiles, Max Wind SpeedMPH, Mean Wind SpeedMPH, Max Gust SpeedMPH,PrecipitationIn, CloudCover, Events, WindDirDegrees
2013-9-1,91,82,73,64,60,53,73,46,36,29.94,29.86,29.78,10,10,10,18,10,23,0.00,1,,45
2013-9-2,93,81,70,68,58,46,90,53,21,30.05,29.98,29.93,10,10,10,14,8,16,0.00,0,,37
2013-9-3,93,80,66,59,54,47,73,46,22,30.08,30.01,29.96,10,10,10,10,5,,0.00,0,,86
2013-9-4,95,80,64,62,55,44,78,47,19,30.10,30.05,30.00,10,10,10,10,7,16,0.00,0,,97
2013-9-5,97,82,66,65,59,52,84,49,22,30.11,30.06,30.01,10,10,10,14,7,18,0.00,0,,143
2013-9-6,99,86,73,61,59,55,62,43,24,30.07,30.01,29.94,10,10,10,13,9,26,0.00,1,,159
2013-9-7,100,87,75,61,58,54,62,40,22,29.99,29.94,29.87,10,10,10,15,9,,0.00,0,,170
2013-9-8,97,85,73,62,57,48,64,42,19,29.94,29.90,29.84,10,10,10,20,12,24,0.00,0,,182
2013-9-9,93,83,73,63,58,53,66,45,26,29.94,29.90,29.85,10,10,10,24,13,36,0.00,0,,174
2013-9-10,91,82,73,64,61,58,73,50,33,30.05,29.99,29.92,10,10,10,21,13,28,0.00,1,,170
2013-9-11,93,82,72,65,60,55,73,51,34,30.11,30.06,30.00,10,10,10,18,11,34,0.00,1,,171
2013-9-12,93,82,71,65,59,55,71,49,28,30.09,30.04,29.96,10,10,9,16,8,,0.00,2,Rain,134
2013-9-13,86,78,72,67,64,59,84,66,46,30.05,30.00,29.94,10,10,10,17,10,26,0.00,2,Rain,55
2013-9-14,84,75,66,64,60,54,79,62,51,30.07,29.96,29.89,10,10,4,15,7,20,0.03,4,Rain,97
2013-9-15,91,82,71,63,60,56,75,50,31,30.08,29.96,29.91,10,10,4,23,14,33,0.12,2,Rain-Thunderstorm,184
2013-9-16,86,75,66,68,66,64,94,76,54,30.20,30.10,30.01,10,10,7,30,11,38,0.16,5,Rain-Thunderstorm,29
2013-9-17,88,78,68,70,66,64,90,78,48,30.17,30.03,29.94,10,9,2,20,7,34,0.18,3,Rain-Thunderstorm,168
2013-9-18,91,80,70,69,63,56,87,61,33,29.95,29.89,29.82,10,10,10,28,14,36,0.00,0,,184
2013-9-19,87,76,66,65,62,59,90,63,48,30.01,29.89,29.84,10,10,10,29,14,36,0.01,2,Rain,195
2013-9-20,71,64,57,65,57,51,93,75,51,30.06,30.01,29.90,10,10,10,22,11,23,0.02,2,Rain,10
2013-9-21,81,67,54,51,46,41,83,52,27,30.06,30.00,29.91,10,10,10,9,6,,0.00,0,,173
2013-9-22,84,68,55,49,47,43,77,48,24,29.93,29.86,29.77,10,10,10,18,10,24,0.00,0,,162
2013-9-23,86,70,57,50,48,46,74,47,26,29.88,29.76,29.70,10,10,10,29,16,36,0.00,0,,167
2013-9-24,87,75,63,51,43,36,56,38,17,30.01,29.94,29.90,10,10,10,22,10,26,0.00,0,,328
2013-9-25,91,76,61,55,47,42,58,38,20,29.89,29.81,29.70,10,10,10,22,9,29,0.00,0,,148
2013-9-26,95,81,69,58,55,51,68,44,25,29.79,29.73,29.69,10,10,10,30,20,38,0.00,0,,175
2013-9-27,90,77,66,68,61,52,71,56,43,29.84,29.78,29.71,10,10,10,28,20,34,0.00,1,,163
2013-9-28,77,66,55,70,56,42,96,74,33,30.14,29.95,29.75,10,8,2,28,19,39,0.78,4,Rain-Thunderstorm,342
2013-9-29,77,63,51,49,45,38,83,55,25,30.14,30.04,29.92,10,9,4,10,6,,0.00,0,,237
2013-9-30,86,70,55,53,50,47,77,53,30,29.91,29.82,29.75,10,10,10,23,13,34,0.00,0,,163